Portada
METAR-TAF:

METAR-TAF

Aeropuertos :

Kinloss, Escocia

latitud: 57-39N, longitud: 003-34W, altitud: 7 m

Observación

El informe se hizo hace 43 minutos, a las 13:20 UTC
Viento 4 kt del norte
Temperatura 14°C
Humedad 82%
Presión 1012 hPa
Visibilidad 10 km o más

METAR: EGQK 141320Z AUTO 01004KT 9999 OVC016/// 14/11 Q1012

Hora: 15:03 (14:03 UTC)


TAF: falta

Observaciones y pronósticos meteorológicos de más de 4000 aeropuertos (mensajes METAR y TAF).

Los puntos amarillos y rojos representan las estaciones disponibles.

Ponga el ratón en el punto deseado para ver el nombre de la estación.

Haga clic para ver las observaciones y los pronósticos meteorológicos.

Para cambiar el mapa : haga clic en los botones verdes con una cruz de color negro para hacer un zoom, en el botón verde con un guión para alejar o en las flechas verdes para mapas adyacentes.


METAR-TAF: